Time;durP1;ratioP1;P1;durP2;ratioP2;P2;SDS_P1;SDS_P2;PMS_P1;PMS_P2;Temp;Humidity;BMP_temperature;BMP_pressure;BME280_temperature;BME280_humidity;BME280_pressure;Samples;Min_cycle;Max_cycle;Signal;HPM_P1;HPM_P2
2022/04/14 00:02:06;;;;;;;15.90;10.88;;;;;;;14.34;nan;101769.91;4997277;28;20622;-60
2022/04/14 00:04:35;;;;;;;17.15;10.85;;;;;;;14.31;nan;101763.16;4996217;28;20093;-61
2022/04/14 00:07:01;;;;;;;19.38;11.13;;;;;;;14.29;nan;101767.97;4995717;28;20495;-60
2022/04/14 00:09:28;;;;;;;16.42;10.30;;;;;;;14.26;nan;101767.66;4994365;28;20045;-61
2022/04/14 00:11:54;;;;;;;21.08;12.10;;;;;;;14.19;nan;101760.56;4996755;28;20084;-61
2022/04/14 00:14:20;;;;;;;19.67;10.93;;;;;;;14.15;nan;101756.72;4996006;28;20523;-60
2022/04/14 00:16:45;;;;;;;18.80;10.13;;;;;;;14.13;nan;101750.75;4994458;28;20026;-60
2022/04/14 00:19:11;;;;;;;19.17;10.85;;;;;;;14.09;nan;101748.81;5000409;28;20566;-60
2022/04/14 00:21:37;;;;;;;20.60;10.98;;;;;;;14.09;nan;101746.13;4998582;28;20037;-61
2022/04/14 00:24:02;;;;;;;19.15;11.18;;;;;;;14.08;nan;101745.31;4996893;28;20029;-61
2022/04/14 00:26:28;;;;;;;18.98;10.63;;;;;;;14.08;nan;101752.56;4996806;28;20033;-60
2022/04/14 00:28:54;;;;;;;19.73;10.50;;;;;;;14.05;nan;101751.19;4995637;28;20041;-60
2022/04/14 00:31:19;;;;;;;21.30;11.68;;;;;;;14.01;nan;101752.75;4996377;28;20029;-60
2022/04/14 00:33:45;;;;;;;16.48;10.82;;;;;;;13.98;nan;101758.59;4993334;28;20034;-59
2022/04/14 00:36:10;;;;;;;18.35;10.63;;;;;;;13.96;nan;101758.03;4992147;28;20025;-60
2022/04/14 00:38:36;;;;;;;21.23;11.45;;;;;;;13.92;nan;101751.53;4990011;28;20103;-59
2022/04/14 00:41:02;;;;;;;19.05;11.32;;;;;;;13.90;nan;101751.75;4994890;28;20665;-61
2022/04/14 00:43:34;;;;;;;19.70;10.88;;;;;;;13.85;nan;101749.00;4997538;28;20061;-60
2022/04/14 00:46:01;;;;;;;21.77;11.23;;;;;;;13.85;nan;101750.88;4995500;28;20034;-58
2022/04/14 00:48:27;;;;;;;22.35;11.85;;;;;;;13.82;nan;101752.19;4991595;28;20827;-62
2022/04/14 00:50:53;;;;;;;19.65;10.43;;;;;;;13.79;nan;101749.16;4992032;28;20034;-59
2022/04/14 00:53:21;;;;;;;22.55;11.73;;;;;;;13.76;nan;101753.16;4994427;28;20033;-61
2022/04/14 00:55:46;;;;;;;20.13;11.38;;;;;;;13.75;nan;101750.69;4995528;28;20037;-60
2022/04/14 00:58:12;;;;;;;18.35;11.27;;;;;;;13.72;nan;101741.25;4995039;28;20030;-60
2022/04/14 01:00:38;;;;;;;20.27;11.48;;;;;;;13.68;nan;101742.78;4993033;28;20033;-61
2022/04/14 01:03:04;;;;;;;18.83;11.60;;;;;;;13.66;nan;101746.78;4998198;28;20631;-60
2022/04/14 01:05:30;;;;;;;20.83;11.63;;;;;;;13.62;nan;101746.44;4992135;28;20038;-61
2022/04/14 01:07:57;;;;;;;21.92;12.25;;;;;;;13.61;nan;101745.63;4999233;28;20160;-60
2022/04/14 01:10:25;;;;;;;20.30;11.77;;;;;;;13.58;nan;101743.44;4994261;28;20030;-60
2022/04/14 01:12:52;;;;;;;22.88;10.90;;;;;;;13.57;nan;101741.78;4994503;28;20057;-60
2022/04/14 01:15:18;;;;;;;24.38;12.00;;;;;;;13.57;nan;101744.50;4996513;28;20026;-60
2022/04/14 01:17:43;;;;;;;22.83;12.43;;;;;;;13.55;nan;101743.91;4993991;28;20382;-61
2022/04/14 01:20:11;;;;;;;16.65;10.90;;;;;;;13.52;nan;101733.66;4994033;28;20037;-61
2022/04/14 01:22:44;;;;;;;22.88;11.43;;;;;;;13.47;nan;101738.13;4995670;28;20032;-60
2022/04/14 01:25:10;;;;;;;22.15;12.02;;;;;;;13.46;nan;101747.25;4995014;28;20089;-61
2022/04/14 01:27:35;;;;;;;21.58;11.88;;;;;;;13.44;nan;101757.44;4992837;28;20645;-60
2022/04/14 01:30:01;;;;;;;22.58;11.27;;;;;;;13.43;nan;101755.81;4990595;28;20087;-59
2022/04/14 01:32:27;;;;;;;23.52;12.15;;;;;;;13.40;nan;101762.50;4993718;28;20029;-61
2022/04/14 01:34:52;;;;;;;21.67;11.48;;;;;;;13.37;nan;101756.78;4992324;28;20385;-61
2022/04/14 01:37:18;;;;;;;20.70;11.18;;;;;;;13.33;nan;101756.47;4993956;28;20646;-60
2022/04/14 01:39:44;;;;;;;19.65;10.82;;;;;;;13.30;nan;101756.94;4997847;28;20104;-60
2022/04/14 01:42:10;;;;;;;22.70;11.98;;;;;;;13.27;nan;101765.47;4994251;28;20042;-59
2022/04/14 01:44:36;;;;;;;23.48;12.82;;;;;;;13.22;nan;101760.81;4993747;28;20128;-59
2022/04/14 01:47:02;;;;;;;19.90;11.32;;;;;;;13.17;nan;101767.97;4994320;28;20037;-60
2022/04/14 01:49:27;;;;;;;22.35;12.98;;;;;;;13.12;nan;101760.63;4993735;28;20493;-60
2022/04/14 01:51:53;;;;;;;19.15;11.80;;;;;;;13.09;nan;101754.88;4998112;28;20033;-60
2022/04/14 01:54:19;;;;;;;21.05;11.32;;;;;;;13.08;nan;101759.44;4993909;28;20037;-60
2022/04/14 01:56:45;;;;;;;19.88;11.35;;;;;;;13.04;nan;101760.97;4994539;28;20030;-60
2022/04/14 01:59:12;;;;;;;22.08;12.70;;;;;;;12.94;nan;101758.94;4995586;28;20551;-60
2022/04/14 02:01:38;;;;;;;21.67;12.73;;;;;;;12.88;nan;101759.03;4991932;28;20034;-60
2022/04/14 02:04:05;;;;;;;21.83;11.48;;;;;;;12.83;nan;101767.03;4993123;28;20060;-61
2022/04/14 02:06:30;;;;;;;23.08;11.23;;;;;;;12.76;nan;101772.53;4992255;28;20037;-58
2022/04/14 02:08:56;;;;;;;19.42;10.98;;;;;;;12.78;nan;101765.06;4993693;28;20030;-60
2022/04/14 02:11:22;;;;;;;21.00;12.30;;;;;;;12.77;nan;101778.75;4992787;28;20036;-61
2022/04/14 02:13:47;;;;;;;20.02;11.45;;;;;;;12.69;nan;101777.22;4996626;28;20025;-61
2022/04/14 02:16:13;;;;;;;21.33;12.20;;;;;;;12.67;nan;101772.06;4998777;28;20169;-59
2022/04/14 02:18:38;;;;;;;18.33;11.45;;;;;;;12.68;nan;101770.22;5000747;28;20087;-60
2022/04/14 02:21:04;;;;;;;21.08;12.20;;;;;;;12.68;nan;101771.03;5001994;28;20037;-59
2022/04/14 02:23:30;;;;;;;20.92;11.80;;;;;;;12.67;nan;101769.38;5001094;28;20057;-59
2022/04/14 02:25:55;;;;;;;20.10;11.25;;;;;;;12.66;nan;101781.19;5000770;28;20029;-59
2022/04/14 02:28:21;;;;;;;22.80;12.10;;;;;;;12.62;nan;101771.97;4999835;28;20438;-58
2022/04/14 02:30:48;;;;;;;18.73;11.82;;;;;;;12.57;nan;101774.56;5000587;28;20499;-61
2022/04/14 02:33:14;;;;;;;18.92;12.70;;;;;;;12.52;nan;101784.38;4999142;28;20043;-60
2022/04/14 02:35:40;;;;;;;20.80;11.98;;;;;;;12.49;nan;101787.53;4999603;28;20470;-60
2022/04/14 02:38:06;;;;;;;17.13;11.75;;;;;;;12.43;nan;101783.09;4995932;28;20088;-60
2022/04/14 02:40:32;;;;;;;21.27;11.85;;;;;;;12.39;nan;101782.78;4998303;28;20034;-60
2022/04/14 02:42:57;;;;;;;21.45;13.27;;;;;;;12.34;nan;101780.75;4999727;28;20080;-59
2022/04/14 02:45:24;;;;;;;20.40;13.32;;;;;;;12.32;nan;101782.06;5000786;28;20060;-60
2022/04/14 02:47:51;;;;;;;22.98;12.60;;;;;;;12.28;nan;101781.72;5013536;23;20049;-61
2022/04/14 02:50:17;;;;;;;22.60;13.05;;;;;;;12.22;nan;101785.34;5001918;28;20062;-61
2022/04/14 02:52:43;;;;;;;23.98;12.65;;;;;;;12.17;nan;101782.50;5002385;28;20068;-61
2022/04/14 02:55:09;;;;;;;21.65;12.77;;;;;;;12.12;nan;101787.78;5004546;28;20029;-61
2022/04/14 02:57:35;;;;;;;21.23;13.23;;;;;;;11.97;nan;101796.28;4999907;28;20109;-59
2022/04/14 03:00:03;;;;;;;24.83;12.57;;;;;;;11.85;nan;101794.63;4998171;28;20403;-59
2022/04/14 03:02:29;;;;;;;21.08;12.88;;;;;;;11.72;nan;101806.38;4998588;28;20037;-59
2022/04/14 03:04:54;;;;;;;22.10;14.32;;;;;;;11.50;nan;101817.63;4998417;28;20057;-59
2022/04/14 03:07:20;;;;;;;23.42;12.95;;;;;;;11.30;nan;101840.38;4997468;28;20018;-59
2022/04/14 03:09:46;;;;;;;21.42;12.57;;;;;;;11.16;nan;101845.13;4997065;28;20029;-59
2022/04/14 03:12:12;;;;;;;20.60;12.45;;;;;;;11.11;nan;101839.59;4999047;28;20041;-58
2022/04/14 03:14:38;;;;;;;19.45;11.85;;;;;;;11.11;nan;101842.28;4998003;28;20029;-58
2022/04/14 03:17:04;;;;;;;19.73;11.93;;;;;;;11.10;nan;101841.44;4999682;28;20036;-59
2022/04/14 03:19:29;;;;;;;18.70;12.00;;;;;;;11.10;nan;101829.91;4999815;28;20128;-58
2022/04/14 03:21:55;;;;;;;20.08;10.77;;;;;;;11.10;nan;101827.22;5000124;28;20423;-59
2022/04/14 03:24:20;;;;;;;18.80;12.13;;;;;;;11.14;nan;101828.44;4999643;28;20030;-61
2022/04/14 03:26:46;;;;;;;15.63;10.93;;;;;;;11.22;nan;101824.59;4995525;28;20026;-61
2022/04/14 03:29:11;;;;;;;19.38;11.80;;;;;;;11.25;nan;101824.16;4998523;28;20147;-61
2022/04/14 03:31:37;;;;;;;18.73;11.75;;;;;;;11.24;nan;101817.16;4997363;28;20065;-61
2022/04/14 03:34:03;;;;;;;19.45;11.10;;;;;;;11.25;nan;101818.78;4998020;28;20114;-61
2022/04/14 03:36:28;;;;;;;23.50;12.20;;;;;;;11.23;nan;101815.53;4997861;28;20457;-61
2022/04/14 03:38:54;;;;;;;18.35;10.95;;;;;;;11.23;nan;101819.03;4996683;28;20504;-61
2022/04/14 03:41:19;;;;;;;20.08;12.60;;;;;;;11.23;nan;101820.88;4998579;28;20062;-61
2022/04/14 03:43:45;;;;;;;18.05;11.77;;;;;;;11.19;nan;101828.56;5000563;28;20490;-61
2022/04/14 03:46:10;;;;;;;18.38;11.23;;;;;;;11.18;nan;101835.78;4997016;28;20036;-61
2022/04/14 03:48:36;;;;;;;17.92;11.35;;;;;;;11.18;nan;101834.97;4998342;28;20038;-60
2022/04/14 03:51:01;;;;;;;21.17;11.48;;;;;;;11.18;nan;101841.16;4998968;28;20792;-61
2022/04/14 03:53:27;;;;;;;18.92;12.27;;;;;;;11.18;nan;101834.97;5000838;28;20036;-61
2022/04/14 03:55:53;;;;;;;22.02;12.13;;;;;;;11.19;nan;101826.69;4996912;28;20553;-61
2022/04/14 03:58:19;;;;;;;20.95;12.55;;;;;;;11.15;nan;101827.38;4996198;28;20029;-61
2022/04/14 04:00:44;;;;;;;19.90;11.80;;;;;;;11.12;nan;101835.84;4999178;28;20021;-60
2022/04/14 04:03:11;;;;;;;23.55;11.90;;;;;;;11.08;nan;101829.31;4995928;28;20506;-61
2022/04/14 04:05:38;;;;;;;19.73;12.27;;;;;;;10.94;nan;101834.00;4999868;28;20029;-60
2022/04/14 04:08:05;;;;;;;22.50;12.60;;;;;;;10.85;nan;101830.00;4995626;28;20628;-61
2022/04/14 04:10:30;;;;;;;19.10;12.75;;;;;;;10.81;nan;101826.13;4995764;28;20025;-60
2022/04/14 04:12:56;;;;;;;20.30;12.38;;;;;;;10.80;nan;101832.53;4996833;28;20538;-60
2022/04/14 04:15:21;;;;;;;19.85;13.18;;;;;;;10.76;nan;101825.97;4997516;28;20104;-61
2022/04/14 04:17:47;;;;;;;26.50;14.45;;;;;;;10.73;nan;101832.59;4995630;28;20030;-61
2022/04/14 04:20:13;;;;;;;22.67;14.38;;;;;;;10.73;nan;101842.50;4996788;28;20077;-61
2022/04/14 04:22:40;;;;;;;22.02;13.05;;;;;;;10.73;nan;101843.31;4997671;28;20030;-61
2022/04/14 04:25:06;;;;;;;22.13;13.88;;;;;;;10.74;nan;101849.50;4999925;28;20037;-60
2022/04/14 04:27:32;;;;;;;20.55;13.10;;;;;;;10.73;nan;101847.84;4999165;28;20038;-61
2022/04/14 04:29:57;;;;;;;23.48;13.93;;;;;;;10.76;nan;101842.88;5001071;28;20404;-61
2022/04/14 04:32:23;;;;;;;24.88;14.43;;;;;;;10.76;nan;101848.22;4997389;28;20030;-60
2022/04/14 04:34:48;;;;;;;25.45;14.77;;;;;;;10.74;nan;101836.09;4999153;28;20065;-61
2022/04/14 04:37:15;;;;;;;25.92;14.80;;;;;;;10.72;nan;101833.63;4998675;28;20021;-61
2022/04/14 04:39:40;;;;;;;23.02;14.15;;;;;;;10.75;nan;101821.66;4996068;28;21449;-60
2022/04/14 04:42:06;;;;;;;25.00;14.50;;;;;;;10.80;nan;101832.53;4998210;28;20069;-60
2022/04/14 04:44:32;;;;;;;23.08;13.82;;;;;;;10.82;nan;101833.94;4999466;28;20021;-61
2022/04/14 04:46:57;;;;;;;26.77;14.43;;;;;;;10.86;nan;101826.28;4993126;28;20091;-60
2022/04/14 04:49:23;;;;;;;23.00;12.75;;;;;;;10.87;nan;101827.91;4997464;28;20030;-61
2022/04/14 04:51:48;;;;;;;25.27;14.95;;;;;;;10.90;nan;101836.31;4995212;28;20046;-61
2022/04/14 04:54:14;;;;;;;28.88;15.60;;;;;;;10.89;nan;101831.19;4995777;28;20034;-61
2022/04/14 04:56:39;;;;;;;29.38;15.13;;;;;;;10.87;nan;101834.09;4991078;28;20549;-60
2022/04/14 04:59:05;;;;;;;25.83;14.88;;;;;;;10.89;nan;101841.91;4996083;28;20105;-61
2022/04/14 05:01:30;;;;;;;26.80;15.80;;;;;;;10.88;nan;101846.44;4991907;28;20030;-61
2022/04/14 05:03:56;;;;;;;25.20;15.50;;;;;;;10.88;nan;101845.63;4993980;28;20045;-61
2022/04/14 05:06:21;;;;;;;26.08;16.55;;;;;;;10.85;nan;101846.09;4994217;28;20112;-61
2022/04/14 05:08:47;;;;;;;26.73;16.00;;;;;;;10.83;nan;101837.44;4994202;28;20545;-61
2022/04/14 05:11:13;;;;;;;30.15;15.98;;;;;;;10.84;nan;101841.78;4993288;28;20486;-61
2022/04/14 05:13:39;;;;;;;25.33;15.65;;;;;;;10.85;nan;101846.09;4989794;28;20035;-61
2022/04/14 05:16:06;;;;;;;25.45;15.98;;;;;;;10.87;nan;101844.81;4992605;28;20035;-61
2022/04/14 05:18:32;;;;;;;22.45;13.90;;;;;;;10.90;nan;101847.03;4994984;28;20037;-61
2022/04/14 05:20:58;;;;;;;28.58;15.48;;;;;;;10.93;nan;101848.47;4995914;28;20480;-61
2022/04/14 05:23:24;;;;;;;26.15;16.08;;;;;;;10.97;nan;101857.72;4991500;28;20041;-61
2022/04/14 05:25:49;;;;;;;27.05;15.82;;;;;;;10.99;nan;101852.94;4994061;28;20030;-61
2022/04/14 05:28:15;;;;;;;25.73;14.98;;;;;;;11.03;nan;101856.00;4995018;28;20076;-61
2022/04/14 05:30:41;;;;;;;29.67;15.90;;;;;;;11.06;nan;101853.69;4993288;28;20583;-61
2022/04/14 05:33:10;;;;;;;28.73;15.63;;;;;;;11.13;nan;101856.28;4996526;28;20030;-61
2022/04/14 05:35:39;;;;;;;24.42;13.82;;;;;;;11.22;nan;101854.94;4994793;28;20110;-61
2022/04/14 05:38:06;;;;;;;24.48;15.05;;;;;;;11.35;nan;101851.28;4989583;28;20036;-61
2022/04/14 05:40:32;;;;;;;23.92;13.73;;;;;;;11.45;nan;101862.28;4992593;28;20026;-61
2022/04/14 05:42:57;;;;;;;24.33;15.07;;;;;;;11.53;nan;101848.56;4991573;28;20120;-61
2022/04/14 05:45:23;;;;;;;25.63;15.15;;;;;;;11.62;nan;101852.53;4994420;28;20055;-62
2022/04/14 05:47:48;;;;;;;31.55;16.83;;;;;;;11.69;nan;101853.28;4993761;28;20033;-62
2022/04/14 05:50:14;;;;;;;27.00;15.23;;;;;;;11.77;nan;101855.63;4992642;28;20049;-61
2022/04/14 05:52:40;;;;;;;28.40;15.60;;;;;;;11.84;nan;101866.31;4999689;28;20450;-61
2022/04/14 05:55:06;;;;;;;25.92;14.77;;;;;;;11.94;nan;101849.66;5000896;28;20026;-61
2022/04/14 05:57:32;;;;;;;28.63;15.48;;;;;;;12.06;nan;101850.50;4999532;28;20092;-61
2022/04/14 05:59:58;;;;;;;23.20;14.52;;;;;;;12.18;nan;101850.50;5000310;28;20400;-61
2022/04/14 06:02:24;;;;;;;24.63;15.13;;;;;;;12.29;nan;101852.38;5000034;28;20033;-61
2022/04/14 06:04:50;;;;;;;23.92;14.75;;;;;;;12.36;nan;101856.59;4999259;28;20034;-61
2022/04/14 06:07:15;;;;;;;28.38;15.02;;;;;;;12.42;nan;101851.34;4999468;28;20040;-61
2022/04/14 06:09:41;;;;;;;24.63;14.75;;;;;;;12.45;nan;101840.13;4999967;28;20395;-61
2022/04/14 06:12:07;;;;;;;25.90;15.75;;;;;;;12.48;nan;101835.09;5000819;28;20420;-61
2022/04/14 06:14:33;;;;;;;23.42;14.88;;;;;;;12.52;nan;101820.13;4999376;28;20033;-61
2022/04/14 06:16:59;;;;;;;25.27;14.32;;;;;;;12.55;nan;101824.22;5001966;28;20119;-61
2022/04/14 06:19:25;;;;;;;24.55;14.82;;;;;;;12.58;nan;101821.09;5002469;28;20022;-61
2022/04/14 06:21:50;;;;;;;24.52;15.80;;;;;;;12.61;nan;101810.69;5003138;28;20719;-61
2022/04/14 06:24:16;;;;;;;24.38;15.00;;;;;;;12.64;nan;101806.69;5000079;28;20046;-61
2022/04/14 06:26:42;;;;;;;23.40;13.82;;;;;;;12.65;nan;101801.06;5000031;28;20045;-61
2022/04/14 06:29:07;;;;;;;23.00;14.43;;;;;;;12.67;nan;101809.72;5003746;28;20492;-60
2022/04/14 06:31:33;;;;;;;25.67;15.13;;;;;;;12.70;nan;101811.13;5000658;28;20464;-60
2022/04/14 06:33:58;;;;;;;24.40;14.25;;;;;;;12.74;nan;101809.59;5001510;28;20032;-60
2022/04/14 06:36:24;;;;;;;23.50;13.85;;;;;;;12.79;nan;101804.34;5000342;28;20105;-61
2022/04/14 06:38:50;;;;;;;23.90;15.55;;;;;;;12.83;nan;101816.25;5000804;28;20141;-61
2022/04/14 06:41:15;;;;;;;25.58;16.63;;;;;;;12.87;nan;101825.47;5003245;28;20145;-60
2022/04/14 06:43:41;;;;;;;27.70;16.63;;;;;;;12.91;nan;101832.00;5003114;28;20041;-61
2022/04/14 06:46:06;;;;;;;23.85;14.43;;;;;;;12.96;nan;101829.44;4999942;28;20030;-61
2022/04/14 06:48:32;;;;;;;26.85;14.02;;;;;;;13.04;nan;101830.13;5000962;28;20583;-61
2022/04/14 06:50:59;;;;;;;27.92;16.75;;;;;;;13.10;nan;101837.22;5003313;28;20180;-61
2022/04/14 06:53:25;;;;;;;28.08;15.98;;;;;;;13.13;nan;101850.22;5001440;28;20030;-61
2022/04/14 06:55:52;;;;;;;27.55;16.30;;;;;;;13.16;nan;101868.59;5006871;28;20033;-61
2022/04/14 06:58:18;;;;;;;29.25;16.42;;;;;;;13.23;nan;101861.22;5003651;28;20030;-61
2022/04/14 07:00:43;;;;;;;25.02;16.63;;;;;;;13.30;nan;101861.91;5002647;28;20395;-61
2022/04/14 07:03:09;;;;;;;28.38;17.25;;;;;;;13.38;nan;101852.63;5000132;28;20084;-59
2022/04/14 07:05:34;;;;;;;29.70;17.52;;;;;;;13.42;nan;101859.97;4998914;28;20045;-59
2022/04/14 07:08:00;;;;;;;25.95;16.58;;;;;;;13.49;nan;101851.78;4999846;28;20489;-59
2022/04/14 07:10:27;;;;;;;28.63;17.55;;;;;;;13.57;nan;101852.19;4995931;28;20490;-59
2022/04/14 07:12:53;;;;;;;25.88;15.88;;;;;;;13.65;nan;101850.19;5001247;28;20037;-59
2022/04/14 07:15:19;;;;;;;25.40;15.93;;;;;;;13.69;nan;101856.72;4998191;28;20049;-59
2022/04/14 07:17:44;;;;;;;26.13;16.08;;;;;;;13.70;nan;101861.88;4999883;28;20384;-59
2022/04/14 07:20:10;;;;;;;29.00;16.83;;;;;;;13.75;nan;101866.53;4999716;28;20556;-59
2022/04/14 07:22:44;;;;;;;29.85;17.05;;;;;;;13.76;nan;101868.97;4999284;28;20073;-59
2022/04/14 07:25:10;;;;;;;27.37;15.30;;;;;;;13.82;nan;101870.72;4994815;28;20569;-59
2022/04/14 07:27:36;;;;;;;28.55;16.65;;;;;;;13.90;nan;101870.31;4997920;28;20281;-59
2022/04/14 07:30:01;;;;;;;25.17;15.98;;;;;;;14.02;nan;101875.63;5000630;28;20026;-59
2022/04/14 07:32:37;;;;;;;26.13;16.15;;;;;;;14.12;nan;101877.66;4998822;28;20060;-59
2022/04/14 07:35:04;;;;;;;26.08;15.80;;;;;;;14.27;nan;101869.03;5000224;28;20057;-59
2022/04/14 07:37:31;;;;;;;26.05;15.10;;;;;;;14.42;nan;101874.66;4999641;28;20062;-60
2022/04/14 07:39:57;;;;;;;27.35;16.50;;;;;;;14.56;nan;101869.78;4999824;28;20758;-59
2022/04/14 07:42:29;;;;;;;26.48;15.07;;;;;;;14.68;nan;101876.69;4997529;28;20095;-59
2022/04/14 07:44:55;;;;;;;28.73;16.35;;;;;;;14.80;nan;101877.41;4999053;28;20025;-59
2022/04/14 07:47:20;;;;;;;19.33;13.32;;;;;;;14.90;nan;101884.00;4998917;28;20623;-59
2022/04/14 07:49:46;;;;;;;26.65;15.98;;;;;;;14.95;nan;101876.81;4994951;28;20073;-59
2022/04/14 07:52:13;;;;;;;25.60;14.77;;;;;;;14.99;nan;101880.63;4998281;28;21067;-59
2022/04/14 07:54:38;;;;;;;30.08;16.33;;;;;;;15.07;nan;101879.38;4996243;28;20029;-59
2022/04/14 07:57:04;;;;;;;24.05;15.50;;;;;;;15.15;nan;101872.75;4996157;28;20033;-59
2022/04/14 07:59:29;;;;;;;25.70;15.73;;;;;;;15.17;nan;101873.31;4998256;28;20030;-59
2022/04/14 08:02:00;;;;;;;27.08;15.38;;;;;;;15.17;nan;101876.81;4998183;28;20084;-59
2022/04/14 08:04:26;;;;;;;27.75;16.55;;;;;;;15.23;nan;101888.50;4994785;28;20128;-59
2022/04/14 08:06:52;;;;;;;27.25;16.05;;;;;;;15.27;nan;101890.47;4995055;28;20030;-59
2022/04/14 08:09:18;;;;;;;28.17;16.25;;;;;;;15.34;nan;101882.97;4999199;28;20022;-59
2022/04/14 08:11:43;;;;;;;28.27;15.85;;;;;;;15.42;nan;101887.91;4997334;28;20064;-59
2022/04/14 08:14:09;;;;;;;23.30;14.73;;;;;;;15.52;nan;101881.00;5000124;28;20065;-59
2022/04/14 08:16:35;;;;;;;27.40;16.10;;;;;;;15.61;nan;101885.72;4995981;28;20057;-59
2022/04/14 08:19:00;;;;;;;24.17;14.20;;;;;;;15.68;nan;101889.06;4998000;28;20132;-59
2022/04/14 08:21:26;;;;;;;29.05;16.73;;;;;;;15.78;nan;101874.81;4997521;28;20034;-59
2022/04/14 08:23:53;;;;;;;23.70;15.43;;;;;;;15.84;nan;101878.41;4998164;28;20490;-59
2022/04/14 08:26:19;;;;;;;26.45;15.05;;;;;;;15.86;nan;101871.66;4996842;28;20026;-59
2022/04/14 08:28:46;;;;;;;27.45;16.33;;;;;;;15.93;nan;101868.75;4999013;28;20601;-59
2022/04/14 08:31:12;;;;;;;31.92;17.88;;;;;;;16.06;nan;101875.63;5000445;28;20669;-59
2022/04/14 08:33:38;;;;;;;26.98;16.05;;;;;;;16.15;nan;101883.00;4997817;28;20030;-59
2022/04/14 08:36:11;;;;;;;27.10;14.68;;;;;;;16.22;nan;101886.31;4995244;28;20034;-60
2022/04/14 08:38:37;;;;;;;34.13;16.55;;;;;;;16.37;nan;101879.41;4994783;28;20026;-60
2022/04/14 08:41:07;;;;;;;29.70;15.70;;;;;;;16.51;nan;101883.28;4995798;28;20064;-60
2022/04/14 08:43:34;;;;;;;26.67;15.93;;;;;;;16.61;nan;101884.16;4995537;28;20042;-61
2022/04/14 08:46:01;;;;;;;25.45;14.50;;;;;;;16.73;nan;101891.31;4997988;28;20515;-60
2022/04/14 08:48:28;;;;;;;22.63;14.70;;;;;;;16.86;nan;101886.22;4997637;28;20100;-60
2022/04/14 08:50:55;;;;;;;24.90;13.70;;;;;;;16.96;nan;101890.91;4996336;28;20029;-60
2022/04/14 08:53:24;;;;;;;22.10;13.15;;;;;;;16.96;nan;101896.31;4997096;28;20034;-60
2022/04/14 08:55:50;;;;;;;16.85;11.60;;;;;;;16.96;nan;101898.22;4994879;28;20050;-59
2022/04/14 08:58:26;;;;;;;17.67;11.32;;;;;;;17.00;nan;101904.72;4992675;28;20037;-60
2022/04/14 09:00:54;;;;;;;17.60;11.13;;;;;;;17.04;nan;101903.94;4998474;28;20029;-60
2022/04/14 09:03:20;;;;;;;18.38;10.38;;;;;;;17.08;nan;101896.94;4995717;28;20033;-60
2022/04/14 09:05:46;;;;;;;20.98;11.45;;;;;;;17.16;nan;101904.53;4992830;28;20029;-60
2022/04/14 09:08:11;;;;;;;20.77;12.13;;;;;;;17.18;nan;101909.69;5008549;23;20045;-60
2022/04/14 09:10:38;;;;;;;20.52;11.13;;;;;;;17.17;nan;101908.88;5001936;28;20442;-60
2022/04/14 09:13:04;;;;;;;19.20;12.25;;;;;;;17.22;nan;101903.47;4999872;28;20030;-60
2022/04/14 09:15:29;;;;;;;22.77;11.65;;;;;;;17.26;nan;101903.78;4996430;28;20036;-60
2022/04/14 09:17:55;;;;;;;21.52;11.90;;;;;;;17.30;nan;101899.47;5002446;28;20501;-60
2022/04/14 09:20:34;;;;;;;20.25;11.13;;;;;;;17.30;nan;101902.16;5000191;28;20479;-60
2022/04/14 09:23:20;;;;;;;17.73;11.52;;;;;;;17.33;nan;101901.63;5000101;28;20037;-60
2022/04/14 09:25:47;;;;;;;17.63;10.93;;;;;;;17.39;nan;101916.00;5005175;28;20034;-60
2022/04/14 09:28:20;;;;;;;20.20;10.88;;;;;;;17.38;nan;101914.38;4984462;28;20368;-60
2022/04/14 09:31:03;;;;;;;18.65;11.43;;;;;;;17.31;nan;101919.22;5003138;28;20475;-60
2022/04/14 09:33:30;;;;;;;14.43;9.68;;;;;;;17.33;nan;101917.06;5004770;28;20444;-60
2022/04/14 09:36:16;;;;;;;16.98;10.57;;;;;;;17.35;nan;101917.63;5004232;28;20108;-60
2022/04/14 09:38:59;;;;;;;15.23;9.18;;;;;;;17.35;nan;101913.00;5002205;28;20118;-60
2022/04/14 09:41:33;;;;;;;14.35;9.43;;;;;;;17.42;nan;101916.31;4998521;28;20030;-60
2022/04/14 09:44:02;;;;;;;17.13;10.05;;;;;;;17.52;nan;101910.09;5002792;28;20510;-60
2022/04/14 09:46:28;;;;;;;20.50;11.75;;;;;;;17.52;nan;101905.50;5001461;28;20041;-60
2022/04/14 09:49:09;;;;;;;16.77;10.40;;;;;;;17.46;nan;101908.47;5003499;28;20036;-60
2022/04/14 09:51:36;;;;;;;20.75;10.77;;;;;;;17.44;nan;101910.63;5006521;28;20380;-60
2022/04/14 09:54:17;;;;;;;18.02;11.00;;;;;;;17.41;nan;101900.28;5004420;28;20030;-60
2022/04/14 09:56:51;;;;;;;18.40;11.88;;;;;;;17.37;nan;101902.72;5001222;28;20417;-60
2022/04/14 09:59:22;;;;;;;19.80;11.27;;;;;;;17.38;nan;101911.66;4999522;28;20049;-60
2022/04/14 10:01:48;;;;;;;17.13;11.00;;;;;;;17.38;nan;101901.63;5003357;28;20033;-60
2022/04/14 10:04:34;;;;;;;15.70;10.25;;;;;;;17.33;nan;101911.66;5001745;28;20038;-60
2022/04/14 10:07:06;;;;;;;19.08;10.38;;;;;;;17.36;nan;101908.41;5006037;28;20062;-60
2022/04/14 10:09:34;;;;;;;18.88;10.65;;;;;;;17.33;nan;101917.06;5000657;28;20037;-60
2022/04/14 10:12:00;;;;;;;17.08;10.30;;;;;;;17.27;nan;101910.00;5007249;28;20061;-60
2022/04/14 10:14:25;;;;;;;18.17;10.75;;;;;;;17.22;nan;101908.06;5002223;28;20447;-60
2022/04/14 10:16:51;;;;;;;14.23;9.98;;;;;;;17.12;nan;101905.34;5005719;28;20056;-60
2022/04/14 10:19:18;;;;;;;16.92;10.10;;;;;;;17.07;nan;101903.44;5006829;28;20027;-60
2022/04/14 10:21:44;;;;;;;15.45;10.20;;;;;;;17.07;nan;101895.31;5005308;28;20062;-60
2022/04/14 10:24:11;;;;;;;15.98;9.27;;;;;;;17.02;nan;101900.66;5006184;28;20030;-60
2022/04/14 10:26:37;;;;;;;14.82;9.15;;;;;;;16.99;nan;101911.22;5005684;28;20040;-60
2022/04/14 10:29:04;;;;;;;16.35;9.82;;;;;;;16.95;nan;101910.13;5005351;28;20486;-60
2022/04/14 10:31:32;;;;;;;11.70;8.68;;;;;;;16.89;nan;101901.16;5006540;28;20025;-60
2022/04/14 10:34:03;;;;;;;14.52;8.98;;;;;;;16.86;nan;101912.50;5004771;28;20059;-60
2022/04/14 10:36:29;;;;;;;13.43;8.35;;;;;;;16.82;nan;101919.50;5004894;28;20034;-60
2022/04/14 10:38:55;;;;;;;12.55;8.60;;;;;;;16.76;nan;101924.09;5008803;28;20026;-60
2022/04/14 10:41:26;;;;;;;11.38;7.25;;;;;;;16.68;nan;101926.44;5006598;28;20040;-60
2022/04/14 10:43:52;;;;;;;10.60;5.78;;;;;;;16.57;nan;101944.47;5004057;28;20090;-60
2022/04/14 10:46:25;;;;;;;8.80;5.78;;;;;;;16.45;nan;101939.25;5001633;28;20037;-60
2022/04/14 10:49:09;;;;;;;7.30;5.15;;;;;;;16.26;nan;101941.50;5004529;28;20022;-60
2022/04/14 10:51:36;;;;;;;8.93;4.67;;;;;;;16.24;nan;101937.44;5000478;28;20021;-60
2022/04/14 10:54:08;;;;;;;10.10;4.95;;;;;;;16.18;nan;101943.88;5003394;28;20025;-60
2022/04/14 10:56:34;;;;;;;7.13;4.97;;;;;;;16.15;nan;101939.78;5004617;28;20029;-60
2022/04/14 10:59:09;;;;;;;10.48;5.65;;;;;;;16.07;nan;101934.03;5007135;28;20208;-60
2022/04/14 11:04:41;;;;;;;12.68;7.30;;;;;;;15.91;nan;101950.09;5001296;28;20442;-60
2022/04/14 11:07:21;;;;;;;12.65;7.20;;;;;;;15.86;nan;101947.34;5004792;28;20046;-59
2022/04/14 11:09:47;;;;;;;14.13;7.45;;;;;;;15.85;nan;101948.41;5006398;28;20034;-60
2022/04/14 11:12:19;;;;;;;11.73;7.07;;;;;;;15.83;nan;101944.34;4999942;28;20059;-60
2022/04/14 11:14:59;;;;;;;11.80;7.43;;;;;;;15.83;nan;101945.16;5001798;28;20033;-60
2022/04/14 11:17:33;;;;;;;13.80;7.90;;;;;;;15.86;nan;101950.03;4997457;28;20022;-60
2022/04/14 11:20:23;;;;;;;12.68;7.28;;;;;;;15.83;nan;101942.44;5001105;28;20029;-60
2022/04/14 11:23:09;;;;;;;14.50;7.78;;;;;;;15.78;nan;101944.25;5001938;28;20996;-60
2022/04/14 11:25:43;;;;;;;;;;;;;;;15.66;nan;101945.25;5000658;28;20415;-59
2022/04/14 11:28:30;;;;;;;13.27;6.30;;;;;;;15.74;nan;101948.53;4997295;28;19975;-60
2022/04/14 11:31:02;;;;;;;10.82;5.47;;;;;;;15.71;nan;101955.28;4996182;28;20029;-59